Time;durP1;ratioP1;P1;durP2;ratioP2;P2;SDS_P1;SDS_P2;PMS_P1;PMS_P2;Temp;Humidity;BMP_temperature;BMP_pressure;BME280_temperature;BME280_humidity;BME280_pressure;Samples;Min_cycle;Max_cycle;Signal;HPM_P1;HPM_P2
2023/07/04 04:22:33;;;;;;;2.63;1.55;;;;;;;16.27;100.00;100086.91;5110387;27;20388;-69
2023/07/04 04:24:59;;;;;;;2.72;1.52;;;;;;;16.30;100.00;100093.75;5110269;28;20032;-68
2023/07/04 04:27:27;;;;;;;2.00;1.27;;;;;;;16.28;100.00;100093.94;5110327;28;20040;-69
2023/07/04 04:29:55;;;;;;;;;;;;;;;16.35;100.00;100099.28;5110271;28;20046;-69
2023/07/04 04:32:22;;;;;;;3.85;1.25;;;;;;;16.37;100.00;100097.22;5101128;28;19940;-68
2023/07/04 04:34:48;;;;;;;2.15;1.27;;;;;;;16.40;100.00;100107.53;5110143;28;20042;-68
2023/07/04 04:37:13;;;;;;;1.85;1.33;;;;;;;16.41;100.00;100100.28;5110833;28;20036;-68
2023/07/04 04:39:39;;;;;;;2.70;1.50;;;;;;;16.40;100.00;100107.53;5109855;28;20040;-66
2023/07/04 04:42:05;;;;;;;2.17;1.45;;;;;;;16.41;100.00;100109.16;5109504;28;20060;-66
2023/07/04 04:44:30;;;;;;;2.45;1.38;;;;;;;16.44;100.00;100108.75;5109520;28;20517;-66
2023/07/04 04:46:56;;;;;;;2.78;1.52;;;;;;;16.51;100.00;100103.34;5109409;28;20032;-66
2023/07/04 04:49:23;;;;;;;2.90;1.50;;;;;;;16.52;100.00;100113.88;5109251;28;20567;-66
2023/07/04 04:51:51;;;;;;;3.15;1.80;;;;;;;16.55;100.00;100118.81;5109373;28;20032;-66
2023/07/04 04:54:17;;;;;;;2.70;1.45;;;;;;;16.59;100.00;100104.94;5109357;28;20040;-66
2023/07/04 04:56:44;;;;;;;2.70;1.73;;;;;;;16.66;100.00;100111.94;5109341;28;20040;-67
2023/07/04 04:59:11;;;;;;;3.50;1.85;;;;;;;16.70;100.00;100117.75;5108903;28;20035;-66
2023/07/04 05:01:37;;;;;;;1.70;1.40;;;;;;;16.70;100.00;100123.94;5108835;28;20036;-66
2023/07/04 05:04:03;;;;;;;2.38;1.40;;;;;;;16.73;100.00;100120.00;5109240;28;20036;-66
2023/07/04 05:06:30;;;;;;;1.98;1.42;;;;;;;16.77;100.00;100122.03;5108860;28;20050;-65
2023/07/04 05:08:55;;;;;;;3.83;1.60;;;;;;;16.84;100.00;100129.25;5108776;28;20031;-65
2023/07/04 05:11:21;;;;;;;2.75;1.48;;;;;;;16.82;100.00;100129.44;5108996;28;20024;-65
2023/07/04 05:13:48;;;;;;;2.25;1.40;;;;;;;16.88;100.00;100127.75;5108960;28;20040;-66
2023/07/04 05:16:17;;;;;;;3.10;1.60;;;;;;;16.89;100.00;100126.72;5109021;28;20032;-65
2023/07/04 05:18:43;;;;;;;3.05;1.40;;;;;;;16.93;100.00;100131.44;5108537;28;20042;-66
2023/07/04 05:21:11;;;;;;;2.80;1.80;;;;;;;16.97;100.00;100131.84;5108564;28;20043;-65
2023/07/04 05:23:40;;;;;;;2.53;1.63;;;;;;;17.01;100.00;100131.16;5108876;28;20515;-66
2023/07/04 05:26:09;;;;;;;2.88;1.52;;;;;;;17.04;100.00;100132.63;5108732;28;20067;-66
2023/07/04 05:28:36;;;;;;;4.40;1.70;;;;;;;17.11;100.00;100135.25;5108392;28;20166;-66
2023/07/04 05:31:08;;;;;;;5.03;1.70;;;;;;;17.16;100.00;100138.13;5108423;28;20024;-66
2023/07/04 05:33:33;;;;;;;2.10;1.65;;;;;;;17.25;100.00;100134.13;5097037;28;20047;-66
2023/07/04 05:36:33;;;;;;;2.63;1.85;;;;;;;17.34;100.00;100140.84;5094675;28;20024;-66
2023/07/04 05:39:01;;;;;;;3.53;1.88;;;;;;;17.47;100.00;100138.06;5094463;28;20783;-66
2023/07/04 05:41:27;;;;;;;;;;;;;;;17.54;100.00;100133.47;5095373;28;20408;-66
2023/07/04 05:44:02;;;;;;;6.30;4.00;;;;;;;17.65;100.00;100139.97;5094701;28;20060;-60
2023/07/04 05:46:28;;;;;;;2.65;1.85;;;;;;;17.74;100.00;100135.16;5094744;28;20044;-59
2023/07/04 05:48:53;;;;;;;3.78;1.80;;;;;;;17.79;100.00;100138.00;5094307;28;20042;-60
2023/07/04 05:51:20;;;;;;;3.00;1.60;;;;;;;17.92;100.00;100134.34;5094624;28;20016;-61
2023/07/04 05:53:48;;;;;;;2.22;1.73;;;;;;;17.98;100.00;100136.97;5094672;28;20081;-62
2023/07/04 05:56:21;;;;;;;3.35;2.17;;;;;;;18.08;100.00;100137.28;5094570;28;20032;-61
2023/07/04 05:58:52;;;;;;;2.63;1.73;;;;;;;18.21;100.00;100148.94;5094239;28;20123;-61
2023/07/04 06:01:47;;;;;;;2.95;1.70;;;;;;;18.31;100.00;100152.75;5094422;28;20064;-59
2023/07/04 06:04:13;;;;;;;2.45;1.40;;;;;;;18.43;100.00;100150.94;5089725;28;20052;-59
2023/07/04 06:06:50;;;;;;;2.38;1.63;;;;;;;18.45;100.00;100150.72;5094417;28;20051;-59
2023/07/04 06:09:17;;;;;;;4.30;2.05;;;;;;;18.49;100.00;100148.41;5094140;28;20050;-62
2023/07/04 06:11:45;;;;;;;2.67;1.83;;;;;;;18.55;100.00;100158.28;5094437;28;20111;-61
2023/07/04 06:14:20;;;;;;;2.67;1.90;;;;;;;18.57;100.00;100150.75;5094276;28;20040;-61
2023/07/04 06:16:46;;;;;;;3.08;1.80;;;;;;;18.57;100.00;100162.38;5094221;28;20093;-60
2023/07/04 06:19:11;;;;;;;3.13;1.58;;;;;;;18.65;98.55;100159.38;5093873;28;20035;-61
2023/07/04 06:21:36;;;;;;;4.82;1.73;;;;;;;18.66;97.96;100161.06;5094036;28;20038;-60
2023/07/04 06:24:02;;;;;;;2.75;1.70;;;;;;;18.74;97.65;100156.41;5094164;28;20071;-60
2023/07/04 06:26:31;;;;;;;4.00;2.30;;;;;;;18.78;96.55;100154.88;5093874;28;20036;-59
2023/07/04 06:28:57;;;;;;;3.45;1.70;;;;;;;18.82;93.87;100156.06;5093680;28;20447;-61
2023/07/04 06:31:24;;;;;;;2.15;1.45;;;;;;;18.85;91.87;100153.75;5093899;28;20028;-61
2023/07/04 06:33:50;;;;;;;2.40;1.65;;;;;;;18.88;91.67;100166.75;5093666;28;20088;-61
2023/07/04 06:36:16;;;;;;;4.28;1.80;;;;;;;18.92;92.38;100164.44;5092721;28;20115;-61
2023/07/04 06:38:41;;;;;;;2.42;1.75;;;;;;;18.98;92.45;100166.22;5093574;28;20123;-61
2023/07/04 06:41:10;;;;;;;3.80;1.75;;;;;;;19.01;91.10;100176.56;5093675;28;20597;-61
2023/07/04 06:43:36;;;;;;;3.45;1.60;;;;;;;19.11;90.45;100178.72;5093272;28;20631;-61
2023/07/04 06:46:02;;;;;;;3.83;1.50;;;;;;;19.13;87.99;100180.09;5093156;28;20040;-58
2023/07/04 06:48:29;;;;;;;3.03;1.52;;;;;;;19.26;85.08;100184.47;5093293;28;20052;-60
2023/07/04 06:50:58;;;;;;;3.42;1.55;;;;;;;19.29;84.32;100183.19;5093644;28;20404;-60
2023/07/04 06:53:24;;;;;;;5.97;3.45;;;;;;;19.28;86.13;100181.53;5093500;28;20038;-61
2023/07/04 06:55:49;;;;;;;3.08;1.80;;;;;;;19.36;85.60;100179.31;5093358;28;20036;-61
2023/07/04 06:58:15;;;;;;;2.83;1.63;;;;;;;19.46;85.63;100185.00;5093190;28;20048;-61
2023/07/04 07:00:41;;;;;;;2.67;1.50;;;;;;;19.54;84.65;100178.41;5093313;28;20511;-61
2023/07/04 07:03:07;;;;;;;5.97;1.63;;;;;;;19.71;82.81;100174.00;5093297;28;20484;-61
2023/07/04 07:05:37;;;;;;;2.10;1.45;;;;;;;19.84;81.42;100182.94;5093266;28;20035;-62
2023/07/04 07:08:03;;;;;;;2.67;1.20;;;;;;;19.87;77.65;100191.38;5093321;28;20435;-61
2023/07/04 07:10:28;;;;;;;2.67;1.52;;;;;;;19.85;77.34;100188.09;5093216;28;20086;-61
2023/07/04 07:12:53;;;;;;;3.38;1.48;;;;;;;19.89;76.91;100191.97;5093078;28;20062;-61
2023/07/04 07:15:19;;;;;;;4.18;1.85;;;;;;;19.88;77.40;100184.91;5092975;28;20127;-61
2023/07/04 07:17:44;;;;;;;2.88;1.60;;;;;;;19.96;77.96;100189.16;5093106;28;20039;-61
2023/07/04 07:20:11;;;;;;;2.67;1.60;;;;;;;19.93;77.90;100193.13;5092608;28;20461;-61
2023/07/04 07:22:36;;;;;;;2.55;1.35;;;;;;;20.03;78.95;100193.38;5092939;28;20036;-62
2023/07/04 07:25:01;;;;;;;3.15;1.40;;;;;;;20.13;77.71;100186.53;5092869;28;20625;-62
2023/07/04 07:27:27;;;;;;;2.75;1.40;;;;;;;20.18;75.39;100187.47;5092775;28;20052;-62
2023/07/04 07:29:53;;;;;;;2.45;1.77;;;;;;;20.40;74.65;100189.53;5092537;28;20097;-62
2023/07/04 07:32:18;;;;;;;3.20;1.92;;;;;;;20.36;74.71;100186.50;5092677;28;20043;-62
2023/07/04 07:34:43;;;;;;;3.47;1.73;;;;;;;20.52;72.87;100193.91;5092795;28;20127;-61
2023/07/04 07:37:09;;;;;;;2.72;1.60;;;;;;;20.66;71.26;100196.31;5092588;28;20086;-61
2023/07/04 07:39:34;;;;;;;2.33;1.65;;;;;;;20.69;72.00;100199.38;5092449;28;20048;-61
2023/07/04 07:42:00;;;;;;;2.47;1.48;;;;;;;20.82;72.71;100196.38;5092650;28;20074;-61
2023/07/04 07:44:25;;;;;;;2.88;1.63;;;;;;;21.03;70.60;100191.34;5092647;28;20035;-63
2023/07/04 07:46:51;;;;;;;3.83;1.77;;;;;;;21.13;69.39;100192.38;5092513;28;20063;-67
2023/07/04 07:49:16;;;;;;;2.17;1.50;;;;;;;21.21;69.88;100193.84;5092171;28;20043;-66
2023/07/04 07:51:41;;;;;;;4.38;1.80;;;;;;;21.26;67.42;100185.81;5092430;28;20094;-67
2023/07/04 07:54:07;;;;;;;1.77;1.30;;;;;;;21.51;65.89;100192.72;5091156;28;20126;-66
2023/07/04 07:56:38;;;;;;;2.83;1.42;;;;;;;21.61;65.63;100193.72;5092105;28;20067;-67
2023/07/04 07:59:05;;;;;;;2.33;1.48;;;;;;;21.74;64.01;100191.75;5092092;28;20500;-66
2023/07/04 08:01:32;;;;;;;2.53;1.77;;;;;;;21.86;61.87;100192.47;5091152;28;20053;-67
2023/07/04 08:03:58;;;;;;;;;;;;;;;21.92;61.90;100189.59;5092847;28;20035;-67
2023/07/04 08:06:29;;;;;;;3.65;1.80;;;;;;;22.00;60.14;100182.09;5092176;28;20482;-66
2023/07/04 08:08:57;;;;;;;3.45;1.88;;;;;;;22.20;60.87;100188.66;5092088;28;20111;-67
2023/07/04 08:11:24;;;;;;;2.10;1.42;;;;;;;22.40;60.20;100188.09;5092305;28;20038;-67
2023/07/04 08:13:50;;;;;;;2.92;1.98;;;;;;;22.47;60.43;100179.75;5092125;28;20032;-67
2023/07/04 08:16:23;;;;;;;2.45;1.55;;;;;;;22.54;58.02;100185.00;5092122;28;20048;-67
2023/07/04 08:18:49;;;;;;;3.58;2.17;;;;;;;22.61;58.47;100186.44;5091856;28;20055;-67
2023/07/04 08:21:15;;;;;;;3.42;1.83;;;;;;;22.70;58.11;100178.69;5092272;28;20040;-67
2023/07/04 08:23:40;;;;;;;3.47;1.70;;;;;;;22.91;57.20;100180.56;5092224;28;20032;-67
2023/07/04 08:26:06;;;;;;;3.72;1.77;;;;;;;22.95;55.91;100186.28;5092036;28;20500;-67
2023/07/04 08:28:31;;;;;;;3.25;1.90;;;;;;;23.11;55.12;100174.50;5091818;28;20028;-66
2023/07/04 08:31:06;;;;;;;2.83;1.58;;;;;;;22.96;53.41;100172.47;5090581;28;20040;-67
2023/07/04 08:33:32;;;;;;;3.28;1.50;;;;;;;23.11;55.17;100176.41;5092001;28;20119;-67
2023/07/04 08:36:04;;;;;;;5.13;2.00;;;;;;;23.23;53.83;100180.59;5091889;28;20107;-67
2023/07/04 08:38:29;;;;;;;3.70;1.70;;;;;;;23.29;52.90;100167.88;5090444;28;20044;-67
2023/07/04 08:40:55;;;;;;;3.35;1.95;;;;;;;23.23;52.71;100172.44;5091937;28;20039;-67
2023/07/04 08:43:28;;;;;;;4.57;2.13;;;;;;;23.31;50.52;100175.78;5092019;28;20076;-66
2023/07/04 08:45:54;;;;;;;2.67;1.70;;;;;;;23.33;50.56;100182.56;5091862;28;20044;-66
2023/07/04 08:48:24;;;;;;;3.78;2.05;;;;;;;23.29;49.19;100174.13;5091578;28;20074;-67
2023/07/04 08:50:52;;;;;;;3.00;2.00;;;;;;;23.35;48.24;100175.00;5092181;28;20373;-66
2023/07/04 08:53:22;;;;;;;4.47;2.15;;;;;;;23.46;48.79;100168.53;5091808;28;20044;-67
2023/07/04 08:55:59;;;;;;;3.90;2.05;;;;;;;23.62;49.42;100179.59;5091771;28;20044;-67
2023/07/04 08:58:31;;;;;;;;;;;;;;;23.53;48.89;100179.19;5091949;28;20087;-67
2023/07/04 09:01:02;;;;;;;4.07;2.00;;;;;;;23.77;49.04;100166.91;5091737;28;20279;-66
2023/07/04 09:03:44;;;;;;;3.30;1.80;;;;;;;23.64;47.00;100166.53;5091862;28;20040;-66
2023/07/04 09:06:18;;;;;;;3.97;1.60;;;;;;;23.91;49.31;100158.28;5091715;28;20032;-67
2023/07/04 09:09:05;;;;;;;3.63;1.73;;;;;;;24.22;49.12;100170.16;5094262;28;20128;-68
2023/07/04 09:11:32;;;;;;;4.07;2.03;;;;;;;24.33;48.44;100166.41;5095485;28;20096;-66
2023/07/04 09:14:03;;;;;;;5.25;2.15;;;;;;;24.46;46.73;100159.69;5095553;28;20038;-67
2023/07/04 09:16:36;;;;;;;7.13;3.67;;;;;;;24.64;45.32;100170.06;5095506;28;20141;-67
2023/07/04 09:19:06;;;;;;;4.22;2.38;;;;;;;24.83;47.27;100170.38;5095095;28;20032;-67
2023/07/04 09:21:33;;;;;;;4.35;2.13;;;;;;;24.66;45.93;100162.47;5095179;28;20077;-67
2023/07/04 09:23:59;;;;;;;5.38;2.47;;;;;;;24.85;45.27;100174.50;5095324;28;20066;-66
2023/07/04 09:26:38;;;;;;;6.00;2.30;;;;;;;24.92;45.09;100174.22;5095180;28;20135;-67
2023/07/04 09:29:06;;;;;;;4.13;2.03;;;;;;;25.07;44.12;100168.81;5094932;28;20036;-67
2023/07/04 09:31:36;;;;;;;4.90;1.95;;;;;;;25.38;45.02;100172.38;5094919;28;20032;-67
2023/07/04 09:34:07;;;;;;;4.13;2.40;;;;;;;25.56;46.88;100172.91;5094960;28;20072;-68
2023/07/04 09:36:37;;;;;;;3.72;2.47;;;;;;;25.56;42.72;100165.56;5095298;28;20430;-67
2023/07/04 09:39:04;;;;;;;6.95;2.38;;;;;;;25.98;42.47;100161.69;5094679;28;20061;-67
2023/07/04 09:41:32;;;;;;;4.55;2.38;;;;;;;26.05;41.90;100162.22;5094944;28;20435;-68
2023/07/04 09:44:12;;;;;;;3.95;2.40;;;;;;;26.29;43.32;100162.41;5095374;28;20028;-67
2023/07/04 09:46:39;;;;;;;5.63;2.45;;;;;;;26.31;40.66;100164.84;5094583;28;20032;-67
2023/07/04 09:49:33;;;;;;;5.20;2.63;;;;;;;26.42;42.94;100166.50;5094648;28;20084;-66
2023/07/04 09:52:13;;;;;;;5.57;2.58;;;;;;;26.38;41.34;100168.09;5094763;28;20388;-66
2023/07/04 09:54:41;;;;;;;4.45;2.65;;;;;;;26.17;42.42;100173.66;5094823;28;20472;-66
2023/07/04 09:57:18;;;;;;;4.78;2.63;;;;;;;26.04;42.60;100174.22;5094550;28;20067;-67
2023/07/04 09:59:43;;;;;;;;;;;;;;;26.17;40.32;100170.09;5093527;28;20070;-67
2023/07/04 10:02:33;;;;;;;4.47;2.43;;;;;;;25.98;39.55;100161.69;5093326;28;19967;-67
2023/07/04 10:04:59;;;;;;;6.03;2.90;;;;;;;26.04;39.63;100155.13;5094531;28;20032;-67
2023/07/04 10:07:26;;;;;;;3.83;2.20;;;;;;;26.09;39.34;100152.38;5094789;28;20046;-67
2023/07/04 10:09:59;;;;;;;5.05;2.70;;;;;;;26.20;40.40;100155.88;5094102;28;20769;-67
2023/07/04 10:12:27;;;;;;;4.43;2.38;;;;;;;26.19;38.78;100148.78;5094328;28;20274;-66
2023/07/04 10:14:58;;;;;;;5.22;2.67;;;;;;;26.27;39.17;100153.66;5094224;28;20032;-66
2023/07/04 10:17:39;;;;;;;3.60;2.33;;;;;;;26.33;39.50;100151.75;5094134;28;20036;-66
2023/07/04 10:20:13;;;;;;;5.50;2.22;;;;;;;26.47;38.73;100148.16;5093820;28;20101;-67
2023/07/04 10:22:41;;;;;;;4.55;2.28;;;;;;;26.76;39.28;100148.28;5094248;28;20070;-66
2023/07/04 10:25:12;;;;;;;3.55;2.08;;;;;;;27.07;37.53;100145.38;5093941;28;20614;-66
2023/07/04 10:27:40;;;;;;;5.53;2.80;;;;;;;27.35;37.20;100141.03;5093996;28;20028;-66
2023/07/04 10:30:11;;;;;;;3.03;1.85;;;;;;;27.75;35.93;100150.78;5093625;28;20028;-66
2023/07/04 10:32:45;;;;;;;3.10;2.13;;;;;;;27.58;34.97;100143.00;5093928;28;20080;-67
2023/07/04 10:35:16;;;;;;;5.25;2.53;;;;;;;27.73;36.08;100141.25;5093846;28;20057;-66
2023/07/04 10:37:46;;;;;;;4.30;2.30;;;;;;;27.64;36.13;100138.28;5093989;28;20101;-66
2023/07/04 10:40:14;;;;;;;4.22;2.60;;;;;;;27.52;36.25;100140.63;5093511;28;20032;-66
2023/07/04 10:42:47;;;;;;;4.75;2.42;;;;;;;27.56;35.88;100139.72;5093678;28;20027;-67
2023/07/04 10:45:15;;;;;;;3.05;2.40;;;;;;;27.34;36.34;100142.13;5093604;28;20119;-66
2023/07/04 10:47:43;;;;;;;5.38;2.70;;;;;;;27.23;36.65;100141.41;5093664;28;20036;-67
2023/07/04 10:50:17;;;;;;;6.20;3.00;;;;;;;27.55;36.68;100135.38;5093344;28;20493;-67
2023/07/04 10:52:47;;;;;;;4.40;2.65;;;;;;;27.72;36.57;100136.88;5093515;28;20044;-67
2023/07/04 10:55:27;;;;;;;5.00;2.50;;;;;;;28.32;36.39;100135.38;5093332;28;20121;-67
2023/07/04 10:58:01;;;;;;;8.90;2.42;;;;;;;28.52;35.38;100136.22;5093411;28;20106;-66
2023/07/04 11:00:40;;;;;;;2.83;2.03;;;;;;;28.38;35.57;100134.22;5093098;28;20495;-67
2023/07/04 11:03:24;;;;;;;3.83;2.30;;;;;;;28.44;35.19;100128.66;5093344;28;20028;-68
2023/07/04 11:05:54;;;;;;;4.20;2.50;;;;;;;27.96;35.39;100121.28;5093087;28;20370;-67
2023/07/04 11:08:22;;;;;;;5.30;2.60;;;;;;;27.55;36.51;100123.59;5092981;28;20038;-67
2023/07/04 11:11:00;;;;;;;5.38;2.75;;;;;;;27.30;36.00;100124.66;5093138;28;20062;-67
2023/07/04 11:13:26;;;;;;;3.78;2.25;;;;;;;26.93;36.18;100127.94;5093042;28;20043;-68
2023/07/04 11:16:03;;;;;;;6.82;2.75;;;;;;;26.60;36.24;100118.59;5091817;28;20028;-67
2023/07/04 11:18:36;;;;;;;5.55;2.38;;;;;;;26.58;35.89;100116.13;5092779;28;20040;-67
2023/07/04 11:21:14;;;;;;;4.93;2.28;;;;;;;27.54;36.26;100120.06;5092921;28;20028;-66
2023/07/04 11:24:07;;;;;;;4.30;2.28;;;;;;;28.34;36.48;100116.72;5092905;28;20119;-67
2023/07/04 11:27:00;;;;;;;6.13;2.63;;;;;;;28.31;33.93;100108.31;5092713;28;20479;-66
2023/07/04 11:29:48;;;;;;;3.63;2.20;;;;;;;27.79;35.04;100099.06;5082253;28;20106;-65
2023/07/04 11:32:26;;;;;;;5.15;2.47;;;;;;;27.77;33.44;100099.31;5092561;28;20119;-66
2023/07/04 11:35:09;;;;;;;6.82;2.60;;;;;;;28.28;34.85;100097.88;5092717;28;20059;-67
2023/07/04 11:37:45;;;;;;;3.22;2.55;;;;;;;28.26;34.50;100095.44;5092656;28;20039;-67
2023/07/04 11:40:18;;;;;;;3.80;2.20;;;;;;;29.27;34.04;100099.72;5092442;28;20048;-67
2023/07/04 11:42:50;;;;;;;4.78;2.78;;;;;;;28.91;32.45;100090.16;5092549;28;20036;-66
2023/07/04 11:45:21;;;;;;;8.57;2.85;;;;;;;29.25;32.26;100099.22;5092506;28;20130;-67
2023/07/04 11:48:02;;;;;;;3.63;2.30;;;;;;;29.84;32.56;100094.84;5092567;28;20119;-67
2023/07/04 11:50:50;;;;;;;5.55;2.65;;;;;;;30.28;32.68;100083.25;5092235;28;20107;-67
2023/07/04 11:53:24;;;;;;;8.20;2.63;;;;;;;30.54;32.03;100086.22;5092930;28;20047;-66
2023/07/04 11:56:15;;;;;;;5.25;2.47;;;;;;;30.53;31.97;100090.91;5092307;28;20465;-66
2023/07/04 11:58:41;;;;;;;4.18;2.30;;;;;;;31.08;31.42;100087.16;5092200;28;20032;-66
2023/07/04 12:01:07;;;;;;;6.45;2.75;;;;;;;31.46;29.74;100089.50;5092336;28;20038;-67
2023/07/04 12:03:48;;;;;;;4.18;2.22;;;;;;;31.03;29.25;100087.28;5092315;28;20032;-67
2023/07/04 12:06:43;;;;;;;4.35;2.42;;;;;;;30.87;29.37;100083.28;5092180;28;20036;-67
2023/07/04 12:09:13;;;;;;;5.72;2.35;;;;;;;30.65;29.73;100084.06;5091990;28;20420;-67
2023/07/04 12:11:45;;;;;;;4.72;2.28;;;;;;;30.59;28.88;100069.63;5092222;28;20032;-66
2023/07/04 12:14:13;;;;;;;3.60;2.03;;;;;;;29.99;31.17;100078.06;5091052;28;20036;-66
2023/07/04 12:16:40;;;;;;;5.20;2.20;;;;;;;29.69;33.07;100085.81;5092021;28;20045;-66
2023/07/04 12:19:06;;;;;;;;;;;;;;;29.83;31.57;100072.06;5089433;28;20032;-67
2023/07/04 12:21:33;;;;;;;3.47;2.30;;;;;;;29.23;33.60;100076.78;5073200;28;19923;-67
2023/07/04 12:24:03;;;;;;;;;;;;;;;28.85;32.85;100068.59;5072564;28;20043;-67
2023/07/04 12:26:30;;;;;;;6.50;2.60;;;;;;;29.09;33.03;100068.50;5071712;28;19916;-68
2023/07/04 12:28:55;;;;;;;3.75;2.40;;;;;;;29.16;31.69;100060.72;5071499;28;20392;-67
2023/07/04 12:31:21;;;;;;;3.95;2.15;;;;;;;29.30;31.14;100047.81;5071629;28;20040;-67
2023/07/04 12:33:47;;;;;;;4.07;2.35;;;;;;;29.55;30.62;100051.25;5071954;28;20068;-67
2023/07/04 12:36:16;;;;;;;3.35;2.00;;;;;;;29.15;32.74;100054.41;5071766;28;20508;-66
2023/07/04 12:38:47;;;;;;;4.70;2.58;;;;;;;28.71;30.82;100051.28;5071567;28;20036;-66
2023/07/04 12:41:21;;;;;;;5.00;2.67;;;;;;;28.35;32.39;100049.06;5071800;28;20089;-66
2023/07/04 12:43:53;;;;;;;5.68;2.75;;;;;;;28.32;33.11;100045.00;5075190;28;20044;-66
2023/07/04 12:46:20;;;;;;;4.85;2.42;;;;;;;28.12;33.08;100039.78;5075663;28;20131;-66
2023/07/04 12:48:46;;;;;;;;;;;;;;;27.87;34.00;100042.84;5075726;28;20090;-67
2023/07/04 12:51:19;;;;;;;3.63;2.33;;;;;;;27.90;33.59;100045.00;5075581;28;19916;-65
2023/07/04 12:53:45;;;;;;;5.72;2.90;;;;;;;27.51;34.09;100041.31;5074363;28;20055;-67
2023/07/04 12:56:12;;;;;;;4.05;2.40;;;;;;;27.33;33.69;100039.34;5075382;28;20045;-66
2023/07/04 12:58:42;;;;;;;8.68;3.88;;;;;;;27.35;34.55;100033.56;5075165;28;20036;-66
2023/07/04 13:01:10;;;;;;;4.47;2.40;;;;;;;27.44;35.60;100026.34;5075381;28;20389;-67
2023/07/04 13:03:37;;;;;;;6.40;2.78;;;;;;;27.49;36.78;100027.13;5075496;28;20408;-68
2023/07/04 13:06:07;;;;;;;5.15;2.25;;;;;;;27.67;35.12;100025.53;5075577;28;20124;-67
2023/07/04 13:08:40;;;;;;;5.57;3.20;;;;;;;27.56;35.17;100030.31;5074899;28;20072;-66
2023/07/04 13:11:06;;;;;;;4.65;2.70;;;;;;;27.71;34.42;100023.06;5075177;28;20036;-67
2023/07/04 13:13:40;;;;;;;5.18;2.42;;;;;;;27.92;35.73;100026.38;5073901;28;20066;-68
2023/07/04 13:16:10;;;;;;;4.05;2.20;;;;;;;28.04;33.96;100022.09;5075112;28;20036;-67
2023/07/04 13:18:41;;;;;;;4.68;2.45;;;;;;;28.07;33.03;100005.06;5074802;28;20036;-68
2023/07/04 13:21:08;;;;;;;4.25;2.40;;;;;;;27.93;35.45;100006.09;5074982;28;20489;-66
2023/07/04 13:23:36;;;;;;;5.82;2.53;;;;;;;28.02;34.97;100007.88;5075055;28;20082;-67
2023/07/04 13:26:01;;;;;;;5.32;2.38;;;;;;;28.20;35.89;100011.75;5074773;28;20453;-68
2023/07/04 13:28:34;;;;;;;5.25;2.30;;;;;;;28.35;33.75;100017.00;5074742;28;20133;-67
2023/07/04 13:31:36;;;;;;;5.20;2.58;;;;;;;28.45;34.69;100012.50;5074958;28;20535;-68
2023/07/04 13:34:21;;;;;;;5.15;2.50;;;;;;;28.37;32.79;100006.59;5074610;28;20048;-66
2023/07/04 13:36:53;;;;;;;3.10;2.13;;;;;;;28.09;33.01;100008.31;5073548;28;20032;-67
2023/07/04 13:39:19;;;;;;;3.95;2.35;;;;;;;27.96;33.11;100005.50;5074526;28;20036;-66
2023/07/04 13:41:47;;;;;;;5.78;3.13;;;;;;;27.91;33.44;100011.03;5074652;28;20439;-66
2023/07/04 13:44:13;;;;;;;4.32;2.47;;;;;;;27.42;33.54;99998.50;5074747;28;20335;-67
2023/07/04 13:46:39;;;;;;;4.60;2.50;;;;;;;27.33;33.46;99997.50;5074635;28;20398;-67
2023/07/04 13:49:04;;;;;;;3.88;2.42;;;;;;;27.50;35.33;99995.09;5074160;28;20119;-66
2023/07/04 13:51:31;;;;;;;4.80;2.42;;;;;;;27.71;35.98;99985.59;5074573;28;20047;-67
2023/07/04 13:53:56;;;;;;;6.10;2.87;;;;;;;28.01;35.96;99981.63;5073967;28;20033;-67
2023/07/04 13:56:22;;;;;;;4.68;2.35;;;;;;;27.97;34.39;99986.03;5074413;28;20722;-66
2023/07/04 13:58:48;;;;;;;6.50;2.90;;;;;;;27.88;35.19;99987.00;5074130;28;20040;-66
2023/07/04 14:01:15;;;;;;;5.05;2.40;;;;;;;27.73;34.12;99982.56;5074451;28;20058;-65
2023/07/04 14:03:40;;;;;;;4.40;2.67;;;;;;;27.52;35.50;99982.78;5074347;28;20066;-67
2023/07/04 14:06:06;;;;;;;3.30;2.22;;;;;;;27.41;34.13;99988.66;5074127;28;20410;-65
2023/07/04 14:08:33;;;;;;;4.32;2.35;;;;;;;27.20;35.24;99974.41;5073881;28;20040;-65
2023/07/04 14:11:10;;;;;;;4.72;2.75;;;;;;;26.95;36.69;99972.72;5074155;28;20051;-66
2023/07/04 14:13:36;;;;;;;;;;;;;;;27.13;35.50;99972.00;5075033;28;20367;-66
2023/07/04 14:16:04;;;;;;;5.20;2.30;;;;;;;26.93;35.68;99970.28;5074029;28;19979;-66
2023/07/04 14:18:29;;;;;;;4.85;2.53;;;;;;;27.01;36.78;99972.38;5073588;28;20370;-66
2023/07/04 14:20:56;;;;;;;4.32;2.60;;;;;;;27.07;37.77;99978.63;5073855;28;20048;-67
2023/07/04 14:23:22;;;;;;;3.05;2.30;;;;;;;27.10;37.11;99969.84;5073871;28;20043;-67
2023/07/04 14:25:47;;;;;;;4.15;2.28;;;;;;;27.00;35.88;99973.47;5073641;28;20041;-67
2023/07/04 14:28:12;;;;;;;5.22;2.35;;;;;;;27.16;36.36;99974.16;5073844;28;20174;-67
2023/07/04 14:30:39;;;;;;;4.13;2.50;;;;;;;27.28;35.67;99969.09;5073322;28;20071;-67
2023/07/04 14:33:05;;;;;;;4.70;2.35;;;;;;;27.47;36.63;99962.88;5073713;28;20043;-66
2023/07/04 14:35:31;;;;;;;4.25;2.60;;;;;;;27.34;35.55;99960.84;5086061;28;20185;-67
2023/07/04 14:37:58;;;;;;;4.78;2.47;;;;;;;27.25;35.04;99960.66;5093680;28;20529;-66
2023/07/04 14:40:27;;;;;;;4.18;2.53;;;;;;;27.23;35.93;99957.41;5093231;28;20032;-67
2023/07/04 14:42:53;;;;;;;2.58;1.92;;;;;;;27.21;36.78;99960.44;5093619;28;20127;-67
2023/07/04 14:45:18;;;;;;;3.85;2.35;;;;;;;27.10;37.32;99958.91;5093570;28;20174;-67
2023/07/04 14:47:44;;;;;;;5.55;2.42;;;;;;;27.15;37.52;99955.31;5093592;28;20050;-67
2023/07/04 14:50:09;;;;;;;4.30;2.83;;;;;;;26.95;35.82;99959.84;5093189;28;20072;-67
2023/07/04 14:52:35;;;;;;;5.57;2.70;;;;;;;26.85;36.27;99948.22;5093200;28;20044;-65
2023/07/04 14:55:00;;;;;;;4.07;2.50;;;;;;;26.87;36.43;99946.03;5093262;28;20039;-66
2023/07/04 14:57:26;;;;;;;4.90;2.72;;;;;;;26.98;37.33;99951.06;5093150;28;20545;-66
2023/07/04 14:59:53;;;;;;;4.45;2.42;;;;;;;26.91;37.63;99944.31;5093028;28;20489;-66
2023/07/04 15:02:19;;;;;;;4.28;2.58;;;;;;;26.93;37.68;99942.09;5093300;28;20036;-66
2023/07/04 15:04:45;;;;;;;5.25;2.47;;;;;;;26.77;37.83;99936.00;5092712;28;20057;-66
2023/07/04 15:07:10;;;;;;;5.60;2.77;;;;;;;26.83;37.64;99936.75;5092815;28;20036;-65
2023/07/04 15:09:37;;;;;;;4.18;2.55;;;;;;;26.94;39.99;99938.28;5092804;28;20096;-67
2023/07/04 15:12:03;;;;;;;4.78;2.40;;;;;;;27.00;38.41;99937.13;5093020;28;20032;-66
2023/07/04 15:14:29;;;;;;;4.97;2.00;;;;;;;27.08;38.77;99933.78;5093043;28;20071;-65
2023/07/04 15:16:54;;;;;;;4.75;2.58;;;;;;;27.13;36.89;99930.19;5092872;28;20162;-66
2023/07/04 15:19:24;;;;;;;3.72;2.30;;;;;;;27.21;38.14;99933.09;5091359;28;20067;-66
2023/07/04 15:21:52;;;;;;;6.93;2.63;;;;;;;27.18;36.42;99927.38;5092671;28;20036;-65
2023/07/04 15:24:19;;;;;;;3.72;2.17;;;;;;;27.13;36.02;99927.47;5092754;28;20032;-65
2023/07/04 15:26:45;;;;;;;5.78;2.45;;;;;;;26.79;36.21;99925.56;5092859;28;20044;-65
2023/07/04 15:29:10;;;;;;;5.03;2.38;;;;;;;26.73;36.54;99918.53;5092507;28;20051;-65
2023/07/04 15:31:36;;;;;;;4.28;2.25;;;;;;;26.85;37.51;99907.22;5092629;28;20024;-66
2023/07/04 15:34:01;;;;;;;4.10;2.30;;;;;;;26.77;36.71;99905.94;5092640;28;20074;-66
2023/07/04 15:36:27;;;;;;;3.33;2.15;;;;;;;26.77;37.48;99890.34;5092432;28;20062;-65
2023/07/04 15:38:52;;;;;;;5.88;3.13;;;;;;;26.76;37.72;99898.84;5092285;28;20400;-65
2023/07/04 15:41:21;;;;;;;4.38;2.50;;;;;;;26.84;36.65;99891.94;5092485;28;20561;-65
2023/07/04 15:43:48;;;;;;;4.43;2.50;;;;;;;26.91;36.88;99906.06;5092616;28;20366;-65
2023/07/04 15:46:13;;;;;;;4.07;2.75;;;;;;;26.99;37.59;99903.50;5092393;28;20042;-66
2023/07/04 15:48:40;;;;;;;5.82;2.83;;;;;;;27.08;36.20;99906.47;5092169;28;20130;-65
2023/07/04 15:51:07;;;;;;;5.55;2.47;;;;;;;27.22;36.77;99896.44;5092129;28;20096;-65
2023/07/04 15:53:33;;;;;;;6.00;3.42;;;;;;;27.15;37.78;99890.53;5092373;28;20035;-65
2023/07/04 15:56:04;;;;;;;6.03;2.72;;;;;;;27.18;37.74;99889.94;5092133;28;20550;-66
2023/07/04 15:58:30;;;;;;;7.20;3.20;;;;;;;27.24;39.17;99888.75;5091915;28;20080;-57